createdAt,value
2022-08-28T00:00:42.041Z,66.69
2022-08-28T00:10:50.181Z,66.96
2022-08-28T00:20:56.335Z,67.39
2022-08-28T00:51:39.195Z,68.50
2022-08-28T01:01:48.002Z,68.76
2022-08-28T01:11:56.893Z,69.16
2022-08-28T01:22:03.872Z,69.51
2022-08-28T01:32:11.638Z,69.70
2022-08-28T01:42:18.807Z,70.07
2022-08-28T01:52:26.651Z,70.57
2022-08-28T02:02:33.953Z,70.70
2022-08-28T02:12:41.971Z,71.03
2022-08-28T02:22:49.409Z,71.26
2022-08-28T02:32:56.980Z,71.53
2022-08-28T02:43:04.532Z,71.79
2022-08-28T02:53:11.481Z,72.03
2022-08-28T03:03:18.761Z,72.32
2022-08-28T03:13:26.972Z,72.55
2022-08-28T03:23:35.087Z,72.87
2022-08-28T03:33:43.217Z,73.36
2022-08-28T03:43:51.308Z,73.53
2022-08-28T03:53:58.974Z,73.60
2022-08-28T04:04:05.303Z,73.72
2022-08-28T04:14:12.549Z,73.66
2022-08-28T04:24:20.242Z,73.88
2022-08-28T04:34:27.515Z,74.07
2022-08-28T04:44:34.958Z,74.02
2022-08-28T04:54:42.111Z,73.94
2022-08-28T05:04:49.662Z,74.22
2022-08-28T05:14:56.768Z,73.94
2022-08-28T05:25:04.628Z,73.81
2022-08-28T05:35:12.736Z,74.05
2022-08-28T05:45:23.017Z,74.04
2022-08-28T05:55:30.696Z,74.26
2022-08-28T06:15:43.461Z,74.48
2022-08-28T06:25:52.620Z,74.31
2022-08-28T06:36:00.503Z,73.79
2022-08-28T06:46:07.998Z,73.74
2022-08-28T06:56:26.026Z,73.88
2022-08-28T07:06:32.483Z,74.01
2022-08-28T07:16:40.580Z,74.15
2022-08-28T07:26:49.157Z,74.10
2022-08-28T07:36:58.439Z,73.28
2022-08-28T07:47:18.952Z,72.82
2022-08-28T07:57:32.284Z,72.55
2022-08-28T08:07:39.751Z,71.74
2022-08-28T08:17:49.491Z,71.43
2022-08-28T08:27:56.719Z,70.28
2022-08-28T08:38:04.131Z,70.27
2022-08-28T08:48:28.223Z,68.89
2022-08-28T08:58:38.053Z,66.98
2022-08-28T09:08:50.904Z,65.70
2022-08-28T09:18:58.589Z,65.43
2022-08-28T09:29:04.246Z,64.49
2022-08-28T09:39:12.943Z,63.85
2022-08-28T09:49:24.947Z,63.24
2022-08-28T09:59:33.471Z,62.45
2022-08-28T10:19:45.496Z,61.89
2022-08-28T10:29:50.980Z,60.86
2022-08-28T10:39:55.742Z,60.88
2022-08-28T10:50:03.818Z,60.74
2022-08-28T11:00:15.487Z,60.75
2022-08-28T11:10:25.679Z,60.43
2022-08-28T11:20:31.612Z,60.01
2022-08-28T11:30:39.189Z,60.54
2022-08-28T11:40:56.838Z,61.07
2022-08-28T11:51:07.427Z,61.40
2022-08-28T12:01:27.047Z,61.93
2022-08-28T12:11:53.119Z,62.89
2022-08-28T12:22:05.509Z,63.34
2022-08-28T12:32:30.584Z,63.52
2022-08-28T12:42:41.042Z,64.03
2022-08-28T12:52:49.262Z,64.74
2022-08-28T13:02:57.073Z,65.33
2022-08-28T13:13:08.414Z,65.21
2022-08-28T13:23:29.727Z,65.35
2022-08-28T13:33:36.952Z,65.69
2022-08-28T13:43:43.830Z,66.24
2022-08-28T13:53:51.187Z,66.37
2022-08-28T14:03:59.680Z,66.16
2022-08-28T14:14:05.606Z,66.43
2022-08-28T14:24:13.330Z,66.78
2022-08-28T14:34:17.836Z,67.47
2022-08-28T14:44:24.699Z,67.89
2022-08-28T14:54:31.971Z,68.08
2022-08-28T15:04:39.350Z,68.52
2022-08-28T15:14:55.015Z,69.05
2022-08-28T15:25:03.523Z,69.41
2022-08-28T15:35:12.112Z,69.72
2022-08-28T15:45:20.387Z,70.08
2022-08-28T16:05:33.569Z,70.92
2022-08-28T16:15:43.939Z,70.75
2022-08-28T16:25:48.701Z,71.08
2022-08-28T16:56:08.552Z,72.68
2022-08-28T17:06:17.160Z,73.29
2022-08-28T17:16:23.968Z,73.83
2022-08-28T17:26:31.487Z,74.03
2022-08-28T17:36:40.132Z,74.28
2022-08-28T17:46:46.622Z,75.00
2022-08-28T17:56:54.913Z,75.36
2022-08-28T18:07:02.056Z,75.81
2022-08-28T18:17:09.962Z,76.27
2022-08-28T18:27:15.912Z,76.58
2022-08-28T18:37:23.797Z,76.98
2022-08-28T18:47:31.083Z,77.29
2022-08-28T18:57:38.284Z,77.53
2022-08-28T19:07:45.635Z,77.89
2022-08-28T19:17:53.342Z,78.12
2022-08-28T19:28:01.359Z,78.29
2022-08-28T19:38:06.989Z,78.59
2022-08-28T19:48:14.825Z,78.94
2022-08-28T19:58:22.431Z,79.03
2022-08-28T20:08:29.195Z,79.28
2022-08-28T20:18:36.400Z,79.37
2022-08-28T20:28:44.223Z,79.64
2022-08-28T20:38:51.479Z,79.74
2022-08-28T20:48:58.642Z,79.99
2022-08-28T20:59:05.779Z,80.09
2022-08-28T21:09:13.479Z,80.57
2022-08-28T21:19:20.673Z,80.66
2022-08-28T21:29:28.096Z,80.86
2022-08-28T21:39:35.912Z,80.98
2022-08-28T21:49:43.092Z,81.25
2022-08-28T21:59:50.269Z,81.32
2022-08-28T22:09:57.818Z,81.42
2022-08-28T22:20:05.690Z,81.65
2022-08-28T22:30:12.146Z,81.74
2022-08-28T22:40:20.351Z,82.58
2022-08-28T22:50:26.466Z,82.76
2022-08-28T23:00:34.454Z,82.94
2022-08-28T23:10:58.663Z,83.34
2022-08-28T23:21:07.991Z,83.23
2022-08-28T23:31:15.591Z,83.39
2022-08-28T23:41:22.905Z,83.27
2022-08-28T23:51:31.292Z,83.41
